Home   Weather   USA   Germantown   Past weeks
Flag for USA

Past Weather in Germantown, Maryland, USA — Yesterday and Last 2 Weeks

Currently: 84 °F. Broken clouds. (Weather station: Frederick Municipal Airport, USA). See more current weather

Past Weather in Germantown — Graph

°F

Germantown Temperature Yesterday

Maximum temperature yesterday: 95 °F (at 3:47 pm)
Minimum temperature yesterday: 72 °F (at 6:25 am)
Average temperature yesterday: 81 °F

High & Low Weather Summary for the Past Weeks

 TemperatureHumidityPressure
High97 °F (Aug 3, 11:47 am)100% (Jul 25, 11:05 pm)30.27 "Hg (Jul 25, 11:05 pm)
Low61 °F (Jul 31, 5:05 am)29% (Jul 30, 3:47 pm)29.83 "Hg (Jul 28, 4:47 pm)
Average76 °F82%30.05 "Hg
* Reported Jul 25 5:47 pm — Aug 9 5:47 pm, Germantown. Weather by CustomWeather, © 2022

Note: Actual official high and low records may vary slightly from our data, if they occured in-between our weather recording intervals... More about our weather records

Germantown Weather History for the Previous 24 Hours

Scroll right to see more
 ConditionsComfort  
Time TempWeatherWind HumidityBarometerVisibility
5:47 pm
Tue, Aug 9
84 °FBroken clouds.6 mph70%29.95 "Hg10 mi
4:47 pm81 °FLight rain. Broken clouds.12 mph74%29.94 "Hg7 mi
3:47 pm97 °FScattered clouds.8 mph44%29.95 "Hg10 mi
2:47 pm95 °FPartly sunny.8 mph50%29.97 "Hg10 mi
1:47 pm93 °FBroken clouds.7 mph53%29.98 "Hg7 mi
12:47 pm93 °FScattered clouds.7 mph53%29.99 "Hg7 mi
11:47 am91 °FScattered clouds.5 mph52%30.01 "Hg10 mi
10:47 am90 °FSunny.13 mph55%30.01 "Hg10 mi
9:47 am88 °FSunny.9 mph62%30.00 "Hg10 mi
8:47 am81 °FSunny.No wind79%30.01 "Hg10 mi
7:47 am77 °FSunny.No wind89%30.00 "Hg10 mi
6:47 am73 °FSunny.No wind100%29.99 "Hg10 mi
6:25 am73 °FSunny.5 mph94%29.99 "Hg10 mi
6:05 am73 °FClear.3 mph94%29.98 "Hg10 mi
5:25 am73 °FClear.3 mph94%29.98 "Hg10 mi
4:55 am73 °FClear.3 mph94%29.98 "Hg10 mi
4:45 am73 °FClear.No wind100%29.98 "Hg10 mi
4:05 am73 °FClear.3 mph100%29.97 "Hg10 mi
3:25 am73 °FClear.No wind100%29.97 "Hg10 mi
2:55 am73 °FClear.3 mph100%29.97 "Hg10 mi
2:45 am75 °FClear.No wind94%29.97 "Hg10 mi
2:25 am75 °FClear.3 mph94%29.97 "Hg10 mi
2:05 am77 °FClear.No wind89%29.98 "Hg10 mi
1:45 am77 °FClear.No wind89%29.98 "Hg10 mi
1:05 am79 °FClear.3 mph84%29.99 "Hg10 mi
12:45 am79 °FClear.5 mph84%29.99 "Hg10 mi
12:25 am79 °FPassing clouds.No wind79%29.99 "Hg10 mi
12:05 am79 °FPassing clouds.3 mph79%29.98 "Hg10 mi
11:45 pm
Mon, Aug 8
81 °FPassing clouds.No wind74%29.98 "Hg10 mi
11:25 pm81 °FPassing clouds.3 mph74%29.98 "Hg10 mi
11:05 pm81 °FClear.5 mph74%29.98 "Hg10 mi
10:45 pm81 °FClear.5 mph74%29.97 "Hg10 mi
10:25 pm81 °FClear.3 mph74%29.97 "Hg10 mi
10:05 pm81 °FClear.5 mph74%29.98 "Hg10 mi
8:47 pm84 °FClear.No wind70%29.96 "Hg10 mi
Weather by CustomWeather, © 2022

See weather overview